createdAt,value
2023-04-15T00:00:21.100Z,19.24
2023-04-15T00:03:44.123Z,19.15
2023-04-15T00:06:55.809Z,19.15
2023-04-15T00:09:59.226Z,18.99
2023-04-15T00:13:02.338Z,18.93
2023-04-15T00:16:05.853Z,18.96
2023-04-15T00:19:07.948Z,18.81
2023-04-15T00:22:10.540Z,18.90
2023-04-15T00:25:12.741Z,18.91
2023-04-15T00:28:15.478Z,18.97
2023-04-15T00:31:18.181Z,19.00
2023-04-15T00:34:22.633Z,19.01
2023-04-15T00:37:25.308Z,19.00
2023-04-15T00:40:28.162Z,18.97
2023-04-15T00:43:30.360Z,18.77
2023-04-15T00:46:37.238Z,18.16
2023-04-15T00:49:39.700Z,17.63
2023-04-15T00:52:42.373Z,17.51
2023-04-15T00:55:44.712Z,17.41
2023-04-15T00:58:47.355Z,17.14
2023-04-15T01:01:52.234Z,17.30
2023-04-15T01:04:55.054Z,17.57
2023-04-15T01:07:57.492Z,17.68
2023-04-15T01:11:03.908Z,17.61
2023-04-15T01:14:06.162Z,17.88
2023-04-15T01:17:08.885Z,18.01
2023-04-15T01:20:12.468Z,18.09
2023-04-15T01:23:17.984Z,18.21
2023-04-15T01:26:20.823Z,18.18
2023-04-15T01:29:23.439Z,18.16
2023-04-15T01:32:26.254Z,18.18
2023-04-15T01:35:28.899Z,18.28
2023-04-15T01:38:31.810Z,18.16
2023-04-15T01:41:34.449Z,18.09
2023-04-15T01:44:36.635Z,17.89
2023-04-15T01:47:40.311Z,17.91
2023-04-15T01:50:44.394Z,17.60
2023-04-15T01:53:49.903Z,17.71
2023-04-15T01:56:52.700Z,17.34
2023-04-15T01:59:55.386Z,17.35
2023-04-15T02:02:57.637Z,17.20
2023-04-15T02:06:01.638Z,17.07
2023-04-15T02:09:04.585Z,17.30
2023-04-15T02:12:07.196Z,17.13
2023-04-15T02:15:10.498Z,17.67
2023-04-15T02:18:13.222Z,17.14
2023-04-15T02:21:15.365Z,17.67
2023-04-15T02:24:18.024Z,17.53
2023-04-15T02:27:20.236Z,17.74
2023-04-15T02:30:24.269Z,17.24
2023-04-15T02:33:26.490Z,17.16
2023-04-15T02:36:30.224Z,16.60
2023-04-15T02:39:32.314Z,16.12
2023-04-15T02:42:35.027Z,16.48
2023-04-15T02:45:37.648Z,16.30
2023-04-15T02:48:41.494Z,16.29
2023-04-15T02:51:49.706Z,16.17
2023-04-15T02:54:52.364Z,16.02
2023-04-15T02:57:54.616Z,15.51
2023-04-15T03:00:57.932Z,15.75
2023-04-15T03:04:00.873Z,15.67
2023-04-15T03:07:03.663Z,16.18
2023-04-15T03:10:07.817Z,16.62
2023-04-15T03:13:10.769Z,16.77
2023-04-15T03:16:15.402Z,16.96
2023-04-15T03:19:18.250Z,17.38
2023-04-15T03:22:20.838Z,17.31
2023-04-15T03:25:24.493Z,17.06
2023-04-15T03:28:26.609Z,17.30
2023-04-15T03:31:31.380Z,17.48
2023-04-15T03:34:34.547Z,17.55
2023-04-15T03:37:37.425Z,17.60
2023-04-15T03:40:42.500Z,17.61
2023-04-15T03:43:45.806Z,17.26
2023-04-15T03:46:48.198Z,17.53
2023-04-15T03:49:50.973Z,17.20
2023-04-15T03:52:53.833Z,17.04
2023-04-15T03:55:56.363Z,16.42
2023-04-15T03:58:58.600Z,16.30
2023-04-15T04:02:01.624Z,16.14
2023-04-15T04:05:04.455Z,15.90
2023-04-15T04:08:07.397Z,15.83
2023-04-15T04:11:09.895Z,16.86
2023-04-15T04:14:12.454Z,16.80
2023-04-15T04:17:14.583Z,16.82
2023-04-15T04:20:17.109Z,16.76
2023-04-15T04:23:19.515Z,16.94
2023-04-15T04:26:23.749Z,16.93
2023-04-15T04:29:25.753Z,16.96
2023-04-15T04:32:28.366Z,16.77
2023-04-15T04:35:30.972Z,16.94
2023-04-15T04:38:33.472Z,16.93
2023-04-15T04:41:35.553Z,16.59
2023-04-15T04:44:38.737Z,16.79
2023-04-15T04:47:40.928Z,16.25
2023-04-15T04:50:43.874Z,16.09
2023-04-15T04:53:46.380Z,16.15
2023-04-15T04:56:48.853Z,16.04
2023-04-15T04:59:51.801Z,15.87
2023-04-15T05:02:54.379Z,15.61
2023-04-15T05:05:57.039Z,15.63
2023-04-15T05:08:59.682Z,15.42
2023-04-15T05:12:02.556Z,15.40
2023-04-15T05:15:06.777Z,15.61
2023-04-15T05:18:09.049Z,15.37
2023-04-15T05:21:13.508Z,15.58
2023-04-15T05:24:15.813Z,15.63
2023-04-15T05:27:19.414Z,14.83
2023-04-15T05:30:22.532Z,15.23
2023-04-15T05:33:25.300Z,15.24
2023-04-15T05:36:28.314Z,15.03
2023-04-15T05:39:33.211Z,15.07
2023-04-15T05:42:35.791Z,15.27
2023-04-15T05:45:38.432Z,15.51
2023-04-15T05:48:41.590Z,15.30
2023-04-15T05:51:44.592Z,14.95
2023-04-15T05:54:46.943Z,14.72
2023-04-15T05:57:49.773Z,14.93
2023-04-15T06:00:52.241Z,14.79
2023-04-15T06:03:55.132Z,14.28
2023-04-15T06:06:57.479Z,13.86
2023-04-15T06:09:59.932Z,13.77
2023-04-15T06:13:04.055Z,14.32
2023-04-15T06:16:07.030Z,15.09
2023-04-15T06:19:09.161Z,15.36
2023-04-15T06:22:12.155Z,15.93
2023-04-15T06:25:14.967Z,15.66
2023-04-15T06:28:17.430Z,15.27
2023-04-15T06:31:19.666Z,15.22
2023-04-15T06:34:26.210Z,15.44
2023-04-15T06:37:28.616Z,14.54
2023-04-15T06:40:31.900Z,14.73
2023-04-15T06:43:34.512Z,15.26
2023-04-15T06:46:37.044Z,15.42
2023-04-15T06:49:40.695Z,15.60
2023-04-15T06:52:43.306Z,15.44
2023-04-15T06:55:45.474Z,14.95
2023-04-15T06:58:48.170Z,15.09
2023-04-15T07:01:50.443Z,14.92
2023-04-15T07:04:53.260Z,14.62
2023-04-15T07:07:55.843Z,14.61
2023-04-15T07:10:58.712Z,14.86
2023-04-15T07:14:01.189Z,14.79
2023-04-15T07:17:03.711Z,14.76
2023-04-15T07:20:06.934Z,14.22
2023-04-15T07:23:09.808Z,14.71
2023-04-15T07:26:12.549Z,15.04
2023-04-15T07:29:15.375Z,14.57
2023-04-15T07:32:17.660Z,14.91
2023-04-15T07:35:21.783Z,15.19
2023-04-15T07:38:24.871Z,14.85
2023-04-15T07:41:28.494Z,15.44
2023-04-15T07:44:30.734Z,15.20
2023-04-15T07:47:33.436Z,14.46
2023-04-15T07:50:35.764Z,14.42
2023-04-15T07:53:38.715Z,14.37
2023-04-15T07:56:41.553Z,14.41
2023-04-15T07:59:44.238Z,14.21
2023-04-15T08:02:48.726Z,14.07
2023-04-15T08:05:51.864Z,13.66
2023-04-15T08:08:55.624Z,13.63
2023-04-15T08:11:58.263Z,14.52
2023-04-15T08:15:01.726Z,13.76
2023-04-15T08:18:04.683Z,13.52
2023-04-15T08:21:06.956Z,13.81
2023-04-15T08:24:11.941Z,13.66
2023-04-15T08:27:14.560Z,13.93
2023-04-15T08:30:17.371Z,13.73
2023-04-15T08:33:20.163Z,13.80
2023-04-15T08:36:22.720Z,13.94
2023-04-15T08:39:24.808Z,13.70
2023-04-15T08:42:32.724Z,13.80
2023-04-15T08:45:36.574Z,14.40
2023-04-15T08:48:41.174Z,14.89
2023-04-15T08:51:43.754Z,15.07
2023-04-15T08:54:46.947Z,15.12
2023-04-15T08:57:49.656Z,14.49
2023-04-15T09:00:52.732Z,16.02
2023-04-15T09:03:56.598Z,15.14
2023-04-15T09:06:59.130Z,15.29
2023-04-15T09:10:02.144Z,15.33
2023-04-15T09:13:05.408Z,14.92
2023-04-15T09:16:08.764Z,14.75
2023-04-15T09:19:22.914Z,14.13
2023-04-15T09:22:25.204Z,14.67
2023-04-15T09:25:29.668Z,14.96
2023-04-15T09:28:32.552Z,14.76
2023-04-15T09:31:38.607Z,14.91
2023-04-15T09:34:43.329Z,14.22
2023-04-15T09:37:46.154Z,14.34
2023-04-15T09:40:48.953Z,14.45
2023-04-15T09:43:52.640Z,12.74
2023-04-15T09:46:54.880Z,13.63
2023-04-15T09:49:58.966Z,14.03
2023-04-15T09:53:04.409Z,12.34
2023-04-15T09:56:10.105Z,13.78
2023-04-15T09:59:13.261Z,13.50
2023-04-15T10:02:16.823Z,13.12
2023-04-15T10:05:19.140Z,13.87
2023-04-15T10:08:27.498Z,12.37
2023-04-15T10:11:31.795Z,12.95
2023-04-15T10:14:39.014Z,12.26
2023-04-15T10:17:44.564Z,12.10
2023-04-15T10:20:49.070Z,12.40
2023-04-15T10:23:51.999Z,12.98
2023-04-15T10:26:57.621Z,12.74
2023-04-15T10:30:02.316Z,13.25
2023-04-15T10:33:06.230Z,13.98
2023-04-15T10:36:09.367Z,13.88
2023-04-15T10:39:35.002Z,13.01
2023-04-15T10:42:37.517Z,13.62
2023-04-15T10:45:40.262Z,13.33
2023-04-15T10:48:49.115Z,14.22
2023-04-15T10:51:53.799Z,12.88
2023-04-15T10:55:11.543Z,12.09
2023-04-15T10:58:15.371Z,11.99
2023-04-15T11:01:19.769Z,12.57
2023-04-15T11:05:00.344Z,12.84
2023-04-15T11:08:03.003Z,13.55
2023-04-15T11:11:08.743Z,12.75
2023-04-15T11:14:16.806Z,13.40
2023-04-15T11:17:32.222Z,12.92
2023-04-15T11:20:34.976Z,12.68
2023-04-15T11:23:41.932Z,13.42
2023-04-15T11:26:44.203Z,13.14
2023-04-15T11:29:46.784Z,13.11
2023-04-15T11:32:50.478Z,12.84
2023-04-15T11:35:57.079Z,12.60
2023-04-15T11:39:00.029Z,13.40
2023-04-15T11:42:02.959Z,12.85
2023-04-15T11:45:21.634Z,11.94
2023-04-15T11:48:28.405Z,12.16
2023-04-15T11:51:35.474Z,12.85
2023-04-15T11:54:38.222Z,12.31
2023-04-15T11:57:40.827Z,12.54
2023-04-15T12:00:54.997Z,12.60
2023-04-15T12:04:00.036Z,12.17
2023-04-15T12:07:07.727Z,12.67
2023-04-15T12:10:10.862Z,12.45
2023-04-15T12:13:13.608Z,13.15
2023-04-15T12:16:20.438Z,13.40
2023-04-15T12:19:43.851Z,12.82
2023-04-15T12:22:46.699Z,13.06
2023-04-15T12:25:53.024Z,13.80
2023-04-15T12:29:01.998Z,13.27
2023-04-15T12:32:11.432Z,14.04
2023-04-15T12:35:14.293Z,14.17
2023-04-15T12:38:16.958Z,12.95
2023-04-15T12:41:21.691Z,13.71
2023-04-15T12:44:24.742Z,12.48
2023-04-15T12:47:27.423Z,12.84
2023-04-15T12:50:29.566Z,12.45
2023-04-15T12:53:32.152Z,12.58
2023-04-15T12:56:35.435Z,12.54
2023-04-15T12:59:38.156Z,12.50
2023-04-15T13:02:40.412Z,12.60
2023-04-15T13:05:43.080Z,12.69
2023-04-15T13:08:57.481Z,12.57
2023-04-15T13:12:05.737Z,12.36
2023-04-15T13:15:10.888Z,12.38
2023-04-15T13:18:13.697Z,12.75
2023-04-15T13:21:16.000Z,12.13
2023-04-15T13:24:18.736Z,11.99
2023-04-15T13:27:21.588Z,11.76
2023-04-15T13:30:24.203Z,11.59
2023-04-15T13:33:27.070Z,11.26
2023-04-15T13:36:29.624Z,11.62
2023-04-15T13:39:32.432Z,11.51
2023-04-15T13:42:35.170Z,11.75
2023-04-15T13:45:37.960Z,11.97
2023-04-15T13:48:41.140Z,11.78
2023-04-15T13:51:43.626Z,11.28
2023-04-15T13:54:48.039Z,11.86
2023-04-15T13:58:12.033Z,11.36
2023-04-15T14:01:14.795Z,11.24
2023-04-15T14:04:17.393Z,10.88
2023-04-15T14:07:20.761Z,10.64
2023-04-15T14:10:23.573Z,10.93
2023-04-15T14:13:26.585Z,10.98
2023-04-15T14:16:28.859Z,11.12
2023-04-15T14:19:34.221Z,10.91
2023-04-15T14:22:36.693Z,11.08
2023-04-15T14:25:42.479Z,10.85
2023-04-15T14:28:45.449Z,10.87
2023-04-15T14:32:11.601Z,11.04
2023-04-15T14:35:11.558Z,10.64
2023-04-15T14:38:14.147Z,10.32
2023-04-15T14:41:16.366Z,11.08
2023-04-15T14:44:19.540Z,10.78
2023-04-15T14:47:21.789Z,10.53
2023-04-15T14:50:24.602Z,10.70
2023-04-15T14:53:27.127Z,10.80
2023-04-15T14:56:29.881Z,10.73
2023-04-15T14:59:32.109Z,10.43
2023-04-15T15:02:39.663Z,10.85
2023-04-15T15:05:44.547Z,11.10
2023-04-15T15:08:47.630Z,10.91
2023-04-15T15:11:50.179Z,10.57
2023-04-15T15:14:52.935Z,10.17
2023-04-15T15:17:55.152Z,9.82
2023-04-15T15:20:57.821Z,10.36
2023-04-15T15:24:00.238Z,9.88
2023-04-15T15:27:03.409Z,10.23
2023-04-15T15:30:07.148Z,10.09
2023-04-15T15:33:09.736Z,10.06
2023-04-15T15:36:12.513Z,9.99
2023-04-15T15:39:15.109Z,10.17
2023-04-15T15:42:19.387Z,10.12
2023-04-15T15:45:22.585Z,10.03
2023-04-15T15:48:25.438Z,10.09
2023-04-15T15:51:28.112Z,9.75
2023-04-15T15:54:30.749Z,9.74
2023-04-15T15:57:34.129Z,9.78
2023-04-15T16:00:37.312Z,9.55
2023-04-15T16:03:41.066Z,9.44
2023-04-15T16:06:45.354Z,9.37
2023-04-15T16:09:47.988Z,9.41
2023-04-15T16:12:50.583Z,9.35
2023-04-15T16:15:53.173Z,9.41
2023-04-15T16:18:55.378Z,9.31
2023-04-15T16:21:57.924Z,9.14
2023-04-15T16:25:01.776Z,9.30
2023-04-15T16:28:14.833Z,9.42
2023-04-15T16:31:21.053Z,9.24
2023-04-15T16:34:23.741Z,9.42
2023-04-15T16:37:25.964Z,9.34
2023-04-15T16:40:29.215Z,9.37
2023-04-15T16:43:31.813Z,9.28
2023-04-15T16:46:34.689Z,9.03
2023-04-15T16:49:37.028Z,8.94
2023-04-15T16:52:39.448Z,9.07
2023-04-15T16:55:41.709Z,9.21
2023-04-15T16:58:44.587Z,9.39
2023-04-15T17:01:47.577Z,9.18
2023-04-15T17:04:50.548Z,9.03
2023-04-15T17:07:52.784Z,8.94
2023-04-15T17:10:55.384Z,8.84
2023-04-15T17:13:57.664Z,8.74
2023-04-15T17:17:00.825Z,8.83
2023-04-15T17:20:03.838Z,8.83
2023-04-15T17:23:06.768Z,8.73
2023-04-15T17:26:08.961Z,8.76
2023-04-15T17:29:11.549Z,8.80
2023-04-15T17:32:13.861Z,8.79
2023-04-15T17:35:16.764Z,8.70
2023-04-15T17:38:19.571Z,8.63
2023-04-15T17:41:22.880Z,8.66
2023-04-15T17:44:25.418Z,8.73
2023-04-15T17:47:28.103Z,8.66
2023-04-15T17:50:30.135Z,8.72
2023-04-15T17:53:33.116Z,8.79
2023-04-15T17:56:35.874Z,8.57
2023-04-15T17:59:38.956Z,8.59
2023-04-15T18:02:41.795Z,8.62
2023-04-15T18:05:44.746Z,8.72
2023-04-15T18:08:47.214Z,8.70
2023-04-15T18:11:49.936Z,8.65
2023-04-15T18:14:53.379Z,8.52
2023-04-15T18:17:55.919Z,8.48
2023-04-15T18:21:00.411Z,8.55
2023-04-15T18:24:03.555Z,8.35
2023-04-15T18:27:05.896Z,8.42
2023-04-15T18:30:11.287Z,8.26
2023-04-15T18:33:13.776Z,8.43
2023-04-15T18:36:16.686Z,8.39
2023-04-15T18:39:19.291Z,8.42
2023-04-15T18:42:22.722Z,8.29
2023-04-15T18:45:25.340Z,8.26
2023-04-15T18:48:27.944Z,8.33
2023-04-15T18:51:30.401Z,8.49
2023-04-15T18:54:32.945Z,8.36
2023-04-15T18:57:37.236Z,8.43
2023-04-15T19:00:43.978Z,8.38
2023-04-15T19:03:46.879Z,8.31
2023-04-15T19:06:50.188Z,8.39
2023-04-15T19:09:53.468Z,8.36
2023-04-15T19:12:56.451Z,8.60
2023-04-15T19:15:58.479Z,8.91
2023-04-15T19:19:00.972Z,8.93
2023-04-15T19:22:03.909Z,8.87
2023-04-15T19:25:06.966Z,9.03
2023-04-15T19:28:09.508Z,8.74
2023-04-15T19:31:12.271Z,8.84
2023-04-15T19:34:15.261Z,8.73
2023-04-15T19:37:18.380Z,8.67
2023-04-15T19:40:20.690Z,8.90
2023-04-15T19:43:23.975Z,8.94
2023-04-15T19:46:28.016Z,9.28
2023-04-15T19:49:31.161Z,9.11
2023-04-15T19:52:34.237Z,8.91
2023-04-15T19:55:37.012Z,9.23
2023-04-15T19:58:39.410Z,8.93
2023-04-15T20:01:42.010Z,9.06
2023-04-15T20:04:44.335Z,9.10
2023-04-15T20:07:49.086Z,9.28
2023-04-15T20:10:52.219Z,9.23
2023-04-15T20:13:58.061Z,9.45
2023-04-15T20:17:00.421Z,9.37
2023-04-15T20:20:05.297Z,9.41
2023-04-15T20:23:07.576Z,9.18
2023-04-15T20:26:10.396Z,9.30
2023-04-15T20:29:13.295Z,9.23
2023-04-15T20:32:15.932Z,9.38
2023-04-15T20:35:18.255Z,9.31
2023-04-15T20:38:22.117Z,9.39
2023-04-15T20:41:24.386Z,9.08
2023-04-15T20:44:27.172Z,9.10
2023-04-15T20:47:29.652Z,9.23
2023-04-15T20:50:32.337Z,9.34
2023-04-15T20:53:34.787Z,9.32
2023-04-15T20:56:37.257Z,9.17
2023-04-15T20:59:39.417Z,9.41
2023-04-15T21:02:42.468Z,9.47
2023-04-15T21:05:45.712Z,9.61
2023-04-15T21:08:48.194Z,9.27
2023-04-15T21:14:56.495Z,9.54
2023-04-15T21:17:59.082Z,9.52
2023-04-15T21:21:02.727Z,9.54
2023-04-15T21:24:07.187Z,9.52
2023-04-15T21:27:10.052Z,9.62
2023-04-15T21:30:12.896Z,9.52
2023-04-15T21:33:17.225Z,9.52
2023-04-15T21:36:19.336Z,9.79
2023-04-15T21:39:22.526Z,9.79
2023-04-15T21:42:24.936Z,10.16
2023-04-15T21:45:27.710Z,10.03
2023-04-15T21:48:30.265Z,9.98
2023-04-15T21:51:32.991Z,9.72
2023-04-15T21:54:37.007Z,10.06
2023-04-15T21:57:39.651Z,9.96
2023-04-15T22:00:42.400Z,9.91
2023-04-15T22:03:45.220Z,9.63
2023-04-15T22:06:48.126Z,9.74
2023-04-15T22:09:50.996Z,9.88
2023-04-15T22:12:53.212Z,9.52
2023-04-15T22:15:55.963Z,9.48
2023-04-15T22:18:58.669Z,9.78
2023-04-15T22:22:01.466Z,9.42
2023-04-15T22:25:04.459Z,9.65
2023-04-15T22:28:08.647Z,9.48
2023-04-15T22:31:10.923Z,9.52
2023-04-15T22:34:21.192Z,9.55
2023-04-15T22:37:24.300Z,9.51
2023-04-15T22:40:26.844Z,9.21
2023-04-15T22:43:29.299Z,9.41
2023-04-15T22:46:31.962Z,9.55
2023-04-15T22:49:35.255Z,9.69
2023-04-15T22:52:38.457Z,9.77
2023-04-15T22:55:44.492Z,9.63
2023-04-15T22:58:47.914Z,9.62
2023-04-15T23:01:50.367Z,9.55
2023-04-15T23:04:53.187Z,9.47
2023-04-15T23:07:55.795Z,9.27
2023-04-15T23:10:58.530Z,9.34
2023-04-15T23:14:00.720Z,9.06
2023-04-15T23:17:03.534Z,9.24
2023-04-15T23:20:07.042Z,9.30
2023-04-15T23:23:10.331Z,9.41
2023-04-15T23:26:12.612Z,9.34
2023-04-15T23:29:15.634Z,9.01
2023-04-15T23:32:17.706Z,9.27
2023-04-15T23:35:20.453Z,9.08
2023-04-15T23:38:22.875Z,9.06
2023-04-15T23:41:26.639Z,9.47
2023-04-15T23:44:29.296Z,8.99
2023-04-15T23:47:31.910Z,9.01
2023-04-15T23:50:34.061Z,9.07
2023-04-15T23:53:36.813Z,9.06
2023-04-15T23:56:38.969Z,9.07
2023-04-15T23:59:41.717Z,8.86
